Time;durP1;ratioP1;P1;durP2;ratioP2;P2;SDS_P1;SDS_P2;PMS_P1;PMS_P2;Temp;Humidity;BMP_temperature;BMP_pressure;BME280_temperature;BME280_humidity;BME280_pressure;Samples;Min_cycle;Max_cycle;Signal;HPM_P1;HPM_P2
2023/03/03 00:01:25;;;;;;;1.65;0.80;;;;;;;7.78;100.00;101181.16;7391113;19;20070;-56
2023/03/03 00:03:52;;;;;;;1.50;1.35;;;;;;;7.61;100.00;101175.53;7398874;19;20015;-56
2023/03/03 00:06:19;;;;;;;1.05;0.93;;;;;;;7.46;100.00;101179.75;7399751;19;20010;-57
2023/03/03 00:08:45;;;;;;;0.65;0.40;;;;;;;8.59;100.00;101180.34;7400446;19;20022;-56
2023/03/03 00:11:12;;;;;;;0.82;0.82;;;;;;;8.67;100.00;101173.44;7400373;19;20013;-56
2023/03/03 00:13:44;;;;;;;1.50;0.98;;;;;;;8.11;100.00;101180.13;7400236;19;20011;-56
2023/03/03 00:16:23;;;;;;;1.80;1.02;;;;;;;7.57;100.00;101183.13;7399944;19;20022;-57
2023/03/03 00:18:50;;;;;;;1.35;1.20;;;;;;;7.25;100.00;101185.66;7399150;19;20010;-57
2023/03/03 00:21:40;;;;;;;3.75;1.50;;;;;;;7.52;100.00;101182.81;7398571;19;20010;-57
2023/03/03 00:24:12;;;;;;;0.90;0.90;;;;;;;7.68;100.00;101179.38;7396600;19;20030;-57
2023/03/03 00:26:41;;;;;;;1.10;0.85;;;;;;;10.52;100.00;101182.97;7399222;19;20006;-57
2023/03/03 00:29:26;;;;;;;2.33;0.98;;;;;;;8.11;100.00;101180.13;7399921;19;20015;-57
2023/03/03 00:31:52;;;;;;;5.03;1.33;;;;;;;8.68;100.00;101186.13;7398531;19;20010;-56
2023/03/03 00:34:25;;;;;;;1.77;1.48;;;;;;;9.07;100.00;101182.44;7398603;19;20067;-56
2023/03/03 00:36:57;;;;;;;1.10;0.85;;;;;;;10.69;100.00;101186.44;7399703;19;20015;-56
2023/03/03 00:39:38;;;;;;;4.00;1.00;;;;;;;7.21;100.00;101184.91;7397147;19;20026;-56
2023/03/03 00:42:14;;;;;;;;;;;;;;;6.91;100.00;101186.97;7399289;19;20374;-56
2023/03/03 00:44:42;;;;;;;3.22;0.88;;;;;;;9.15;100.00;101181.84;7397880;19;19919;-56
2023/03/03 00:47:37;;;;;;;0.90;0.90;;;;;;;8.03;100.00;101184.25;7399841;19;20018;-56
2023/03/03 00:50:06;;;;;;;1.55;0.82;;;;;;;7.21;100.00;101192.44;7396563;19;20017;-57
2023/03/03 00:52:36;;;;;;;2.33;1.65;;;;;;;6.52;100.00;101193.06;7396317;19;20352;-56
2023/03/03 00:55:03;;;;;;;0.60;0.60;;;;;;;6.26;100.00;101204.84;7397357;19;20014;-57
2023/03/03 00:57:30;;;;;;;2.03;1.88;;;;;;;6.45;100.00;101198.69;7399698;19;20011;-56
2023/03/03 00:59:56;;;;;;;1.65;0.40;;;;;;;6.30;100.00;101200.06;7399581;19;20488;-57
2023/03/03 01:02:23;;;;;;;0.75;0.75;;;;;;;6.94;100.00;101203.53;7396831;19;20403;-56
2023/03/03 01:04:51;;;;;;;0.20;0.20;;;;;;;9.20;100.00;101200.00;7394987;19;20474;-56
2023/03/03 01:07:17;;;;;;;2.35;2.03;;;;;;;7.92;100.00;101194.78;7400076;19;20014;-57
2023/03/03 01:09:44;;;;;;;3.05;0.80;;;;;;;7.28;100.00;101209.72;7396501;19;20022;-57
2023/03/03 01:12:11;;;;;;;3.13;1.20;;;;;;;6.75;100.00;101198.69;7397873;19;20074;-56
2023/03/03 01:14:38;;;;;;;17.30;2.33;;;;;;;6.42;100.00;101207.81;7394866;19;20482;-56
2023/03/03 01:17:05;;;;;;;1.08;1.08;;;;;;;9.43;100.00;101196.25;7398521;19;20018;-56
2023/03/03 01:19:31;;;;;;;0.75;0.75;;;;;;;18.66;76.38;101180.84;7399070;19;20010;-56
2023/03/03 01:21:58;;;;;;;5.53;0.82;;;;;;;15.26;75.06;101200.31;7394891;19;20494;-57
2023/03/03 01:24:24;;;;;;;2.92;1.13;;;;;;;13.58;74.63;101201.13;7394679;19;20031;-57
2023/03/03 01:26:50;;;;;;;2.90;1.75;;;;;;;10.05;90.50;101209.72;7398054;19;20021;-57
2023/03/03 01:29:16;;;;;;;2.05;1.20;;;;;;;11.65;88.67;101201.63;7398434;19;20014;-57
2023/03/03 01:31:42;;;;;;;1.35;0.70;;;;;;;12.59;85.76;101201.47;7395070;19;20015;-56
2023/03/03 01:34:09;;;;;;;4.68;1.20;;;;;;;12.82;80.77;101198.97;7397170;19;20010;-56
2023/03/03 01:36:36;;;;;;;0.90;0.90;;;;;;;12.34;81.88;101201.63;7397675;19;20011;-56
2023/03/03 01:39:03;;;;;;;1.95;0.95;;;;;;;18.03;56.52;101194.78;7396612;19;20481;-56
2023/03/03 01:41:33;;;;;;;1.75;1.65;;;;;;;24.17;52.38;101180.78;7396436;19;20011;-56
2023/03/03 01:44:00;;;;;;;2.40;1.10;;;;;;;14.72;62.57;101195.69;7398077;19;20013;-56
2023/03/03 01:46:54;;;;;;;1.85;0.90;;;;;;;11.76;75.57;101204.88;7394778;19;20006;-56
2023/03/03 01:49:25;;;;;;;0.98;0.88;;;;;;;11.96;75.49;101204.59;7392254;19;20093;-56
2023/03/03 01:51:55;;;;;;;0.90;0.90;;;;;;;11.69;78.48;101209.94;7395474;19;20022;-58
2023/03/03 01:54:35;;;;;;;1.23;1.08;;;;;;;11.48;79.32;101210.63;7396794;19;20019;-56
2023/03/03 01:57:10;;;;;;;0.80;0.80;;;;;;;7.91;100.00;101215.38;7395592;19;20050;-57
2023/03/03 01:59:41;;;;;;;0.90;0.90;;;;;;;7.37;100.00;101212.75;7398475;19;20463;-56
2023/03/03 02:02:08;;;;;;;0.85;0.85;;;;;;;8.03;100.00;101212.78;7395715;19;20078;-56
2023/03/03 02:04:34;;;;;;;1.55;1.15;;;;;;;10.98;96.17;101211.44;7395112;19;20030;-56
2023/03/03 02:07:06;;;;;;;0.95;0.73;;;;;;;11.36;90.18;101215.75;7396611;19;20515;-56
2023/03/03 02:09:50;;;;;;;2.15;0.98;;;;;;;6.83;100.00;101219.50;7393724;19;20463;-56
2023/03/03 02:12:19;;;;;;;1.30;0.63;;;;;;;8.92;100.00;101211.78;7395279;19;20341;-56
2023/03/03 02:14:45;;;;;;;2.58;1.85;;;;;;;10.38;99.06;101211.22;7395608;19;20010;-56
2023/03/03 02:17:11;;;;;;;4.78;0.88;;;;;;;10.60;94.37;101201.00;7396962;19;20014;-56
2023/03/03 02:19:50;;;;;;;3.70;0.93;;;;;;;10.83;87.84;101197.13;7395624;19;20078;-56
2023/03/03 02:22:22;;;;;;;2.10;0.90;;;;;;;7.42;100.00;101211.50;7394001;19;20015;-57
2023/03/03 02:24:56;;;;;;;3.17;1.10;;;;;;;8.38;100.00;101200.25;7393098;19;20043;-57
2023/03/03 02:27:22;;;;;;;1.80;1.10;;;;;;;5.08;100.00;101203.56;7393387;19;20103;-56
2023/03/03 02:29:49;;;;;;;5.15;1.67;;;;;;;4.23;100.00;101212.28;7398018;19;20438;-57
2023/03/03 02:32:15;;;;;;;1.48;1.33;;;;;;;4.10;100.00;101202.09;7394351;19;20018;-56
2023/03/03 02:34:47;;;;;;;6.60;2.65;;;;;;;3.85;100.00;101213.19;7393113;19;20494;-56
2023/03/03 02:37:13;;;;;;;4.30;1.17;;;;;;;3.73;100.00;101216.34;7396587;19;20018;-56
2023/03/03 02:39:39;;;;;;;4.90;1.30;;;;;;;3.69;100.00;101210.06;7393411;19;20018;-56
2023/03/03 02:42:13;;;;;;;7.38;2.20;;;;;;;4.16;100.00;101200.53;7394056;19;20010;-56
2023/03/03 02:44:44;;;;;;;1.23;1.10;;;;;;;8.65;100.00;101189.75;7391762;19;20014;-56
2023/03/03 02:47:10;;;;;;;3.03;1.90;;;;;;;4.44;100.00;101205.91;7394245;19;20018;-56
2023/03/03 02:49:38;;;;;;;1.13;0.80;;;;;;;7.27;100.00;101199.88;7394528;19;20019;-56
2023/03/03 02:52:08;;;;;;;2.03;1.52;;;;;;;6.97;100.00;101202.72;7394628;19;20034;-56
2023/03/03 02:54:35;;;;;;;1.73;1.42;;;;;;;5.37;100.00;101202.94;7392927;19;20028;-56
2023/03/03 02:57:04;;;;;;;4.22;2.67;;;;;;;4.46;100.00;101209.06;7394618;19;20365;-56
2023/03/03 02:59:30;;;;;;;6.28;1.92;;;;;;;4.68;100.00;101209.75;7396956;19;20014;-56
2023/03/03 03:02:00;;;;;;;5.57;2.03;;;;;;;4.32;100.00;101204.38;7392131;19;20014;-56
2023/03/03 03:04:27;;;;;;;1.05;1.02;;;;;;;4.17;100.00;101202.88;7393868;19;20018;-56
2023/03/03 03:06:55;;;;;;;2.22;2.03;;;;;;;4.23;100.00;101206.78;7394135;19;20006;-56
2023/03/03 03:09:24;;;;;;;2.03;1.90;;;;;;;4.11;100.00;101204.47;7392098;19;20015;-56
2023/03/03 03:11:51;;;;;;;1.60;1.23;;;;;;;4.07;100.00;101198.16;7391928;19;20066;-56
2023/03/03 03:14:22;;;;;;;5.47;2.75;;;;;;;3.98;100.00;101200.56;7391844;19;20011;-56
2023/03/03 03:16:48;;;;;;;3.47;1.40;;;;;;;3.92;100.00;101199.38;7393327;19;20010;-56
2023/03/03 03:19:14;;;;;;;4.20;2.15;;;;;;;6.03;100.00;101203.53;7393498;19;20010;-56
2023/03/03 03:21:42;;;;;;;1.00;1.00;;;;;;;10.13;100.00;101188.88;7392048;19;20015;-56
2023/03/03 03:24:09;;;;;;;1.48;1.38;;;;;;;7.30;100.00;101193.47;7391204;19;20006;-57
2023/03/03 03:26:38;;;;;;;4.82;1.60;;;;;;;7.62;100.00;101193.72;7391831;19;20074;-57
2023/03/03 03:29:06;;;;;;;6.57;2.63;;;;;;;5.29;100.00;101197.88;7394891;19;20018;-56
2023/03/03 03:31:32;;;;;;;4.47;1.63;;;;;;;8.47;100.00;101189.31;7391700;19;20496;-56
2023/03/03 03:33:59;;;;;;;1.90;1.73;;;;;;;15.14;96.06;101176.03;7391691;19;20022;-56
2023/03/03 03:36:27;;;;;;;1.42;1.35;;;;;;;25.14;49.98;101156.19;7391643;19;20018;-56
2023/03/03 03:38:53;;;;;;;1.23;1.13;;;;;;;20.64;41.72;101162.59;7399451;19;20359;-56
2023/03/03 03:41:21;;;;;;;9.23;2.10;;;;;;;20.99;39.30;101168.47;7399638;19;20018;-56
2023/03/03 03:43:47;;;;;;;6.40;2.28;;;;;;;8.40;85.14;101193.03;7400500;19;20010;-56
2023/03/03 03:46:14;;;;;;;0.85;0.85;;;;;;;6.37;100.00;101200.75;7395419;19;20003;-56
2023/03/03 03:48:40;;;;;;;2.58;1.77;;;;;;;5.58;100.00;101201.97;7399454;19;20027;-56
2023/03/03 03:51:10;;;;;;;3.97;2.15;;;;;;;5.06;100.00;101197.66;7398637;19;20018;-56
2023/03/03 03:53:36;;;;;;;2.67;1.73;;;;;;;4.72;100.00;101200.22;7398409;19;20011;-56
2023/03/03 03:56:03;;;;;;;1.80;0.95;;;;;;;4.42;100.00;101200.78;7399253;19;20440;-56
2023/03/03 03:58:30;;;;;;;1.23;1.05;;;;;;;4.25;100.00;101203.59;7403281;19;20528;-56
2023/03/03 04:01:06;;;;;;;1.73;1.63;;;;;;;4.15;100.00;101202.47;7398141;19;20014;-56
2023/03/03 04:03:34;;;;;;;0.93;0.90;;;;;;;3.99;100.00;101202.13;7398794;19;20231;-56
2023/03/03 04:06:04;;;;;;;4.47;2.35;;;;;;;3.83;100.00;101196.28;7396002;19;20014;-56
2023/03/03 04:08:30;;;;;;;1.00;0.95;;;;;;;3.76;100.00;101193.53;7402658;19;20015;-56
2023/03/03 04:10:57;;;;;;;0.85;0.68;;;;;;;3.70;100.00;101200.63;7398632;19;20002;-56
2023/03/03 04:13:27;;;;;;;2.10;1.08;;;;;;;3.66;100.00;101205.34;7397092;19;20011;-56
2023/03/03 04:15:54;;;;;;;3.25;1.20;;;;;;;3.62;100.00;101196.28;7396527;19;20022;-56
2023/03/03 04:18:20;;;;;;;2.38;0.93;;;;;;;3.60;100.00;101206.91;7401194;19;20018;-56
2023/03/03 04:20:46;;;;;;;4.05;1.52;;;;;;;3.57;100.00;101208.50;7401417;19;20029;-56
2023/03/03 04:23:14;;;;;;;2.38;1.92;;;;;;;3.55;100.00;101215.59;7397635;19;20011;-56
2023/03/03 04:25:40;;;;;;;3.15;1.30;;;;;;;3.52;100.00;101214.41;7396215;19;20014;-57
2023/03/03 04:28:14;;;;;;;4.88;2.05;;;;;;;3.48;100.00;101210.09;7402610;19;20010;-56
2023/03/03 04:30:40;;;;;;;2.33;1.58;;;;;;;3.44;100.00;101212.06;7401291;19;20483;-57
2023/03/03 04:33:06;;;;;;;3.80;1.48;;;;;;;3.44;100.00;101209.31;7397778;19;20014;-56
2023/03/03 04:35:33;;;;;;;6.45;2.78;;;;;;;3.45;100.00;101216.38;7397695;19;20014;-56
2023/03/03 04:38:00;;;;;;;2.00;1.75;;;;;;;3.43;100.00;101208.50;7400690;19;20122;-56
2023/03/03 04:40:26;;;;;;;3.40;1.77;;;;;;;3.41;100.00;101205.38;7397768;19;20467;-56
2023/03/03 04:42:53;;;;;;;2.83;1.38;;;;;;;3.37;100.00;101207.34;7399336;19;20010;-56
2023/03/03 04:45:19;;;;;;;1.25;1.13;;;;;;;3.34;100.00;101212.81;7397162;19;20018;-56
2023/03/03 04:47:46;;;;;;;1.23;0.85;;;;;;;3.32;100.00;101217.94;7399055;19;20021;-57
2023/03/03 04:50:13;;;;;;;1.55;1.35;;;;;;;3.29;100.00;101216.00;7393749;19;20021;-56
2023/03/03 04:52:40;;;;;;;1.77;1.67;;;;;;;3.26;100.00;101208.50;7396886;19;20689;-56
2023/03/03 04:55:08;;;;;;;2.45;1.40;;;;;;;3.27;100.00;101201.84;7396932;19;20007;-57
2023/03/03 04:57:34;;;;;;;5.85;1.80;;;;;;;3.26;100.00;101201.03;7398912;19;20014;-57
2023/03/03 05:00:03;;;;;;;5.82;2.47;;;;;;;3.25;100.00;101206.94;7399869;19;20017;-56
2023/03/03 05:02:30;;;;;;;1.55;1.45;;;;;;;3.22;100.00;101210.47;7396341;19;20014;-56
2023/03/03 05:04:56;;;;;;;4.57;1.67;;;;;;;3.21;100.00;101206.13;7395647;19;20021;-56
2023/03/03 05:07:23;;;;;;;4.38;1.75;;;;;;;3.16;100.00;101203.78;7400076;19;20015;-57
2023/03/03 05:09:49;;;;;;;1.38;1.10;;;;;;;3.12;100.00;101208.50;7398405;19;20467;-56
2023/03/03 05:12:16;;;;;;;3.92;1.95;;;;;;;3.13;100.00;101212.81;7397821;19;20021;-56
2023/03/03 05:14:42;;;;;;;4.05;2.13;;;;;;;3.10;100.00;101211.63;7397030;19;20039;-57
2023/03/03 05:17:08;;;;;;;3.95;1.65;;;;;;;3.08;100.00;101209.28;7399144;19;20019;-56
2023/03/03 05:19:34;;;;;;;1.20;1.10;;;;;;;3.08;100.00;101208.50;7399698;19;20015;-56
2023/03/03 05:22:01;;;;;;;1.95;1.55;;;;;;;3.05;100.00;101210.06;7397230;19;20378;-56
2023/03/03 05:24:27;;;;;;;3.92;2.40;;;;;;;3.00;100.00;101207.72;7397608;19;20514;-57
2023/03/03 05:26:53;;;;;;;1.67;1.58;;;;;;;2.99;100.00;101214.38;7397798;19;20007;-56
2023/03/03 05:29:19;;;;;;;2.67;1.23;;;;;;;2.99;100.00;101205.34;7397985;19;20039;-56
2023/03/03 05:31:45;;;;;;;2.10;1.63;;;;;;;2.99;100.00;101210.84;7396495;19;20097;-57
2023/03/03 05:34:12;;;;;;;5.72;1.83;;;;;;;2.96;100.00;101200.63;7397094;19;20010;-57
2023/03/03 05:36:38;;;;;;;1.58;1.48;;;;;;;2.95;100.00;101204.53;7397424;19;20082;-56
2023/03/03 05:39:04;;;;;;;4.72;1.80;;;;;;;2.97;100.00;101208.47;7396545;19;20010;-56
2023/03/03 05:41:30;;;;;;;2.70;2.22;;;;;;;2.94;100.00;101208.50;7397052;19;20019;-56
2023/03/03 05:43:56;;;;;;;4.93;1.88;;;;;;;2.94;100.00;101209.28;7396395;19;20011;-57
2023/03/03 05:46:22;;;;;;;5.30;2.03;;;;;;;2.94;100.00;101206.53;7394144;19;20022;-57
2023/03/03 05:48:48;;;;;;;1.92;1.13;;;;;;;2.94;100.00;101209.28;7396130;19;20014;-57
2023/03/03 05:51:15;;;;;;;3.72;1.75;;;;;;;2.91;100.00;101203.75;7395758;19;20015;-56
2023/03/03 05:53:41;;;;;;;4.50;1.67;;;;;;;2.89;100.00;101201.41;7393551;19;20015;-56
2023/03/03 05:56:07;;;;;;;3.72;2.25;;;;;;;2.90;100.00;101211.22;7394741;19;20373;-57
2023/03/03 05:58:33;;;;;;;1.60;1.30;;;;;;;2.91;100.00;101210.06;7400468;19;20074;-57
2023/03/03 06:00:59;;;;;;;5.65;2.30;;;;;;;2.91;100.00;101218.31;7394421;19;20078;-56
2023/03/03 06:03:25;;;;;;;4.72;1.70;;;;;;;2.90;100.00;101219.47;7396291;19;20014;-56
2023/03/03 06:05:52;;;;;;;1.15;0.90;;;;;;;2.89;100.00;101219.88;7392746;19;20006;-56
2023/03/03 06:08:18;;;;;;;6.90;3.03;;;;;;;2.92;100.00;101219.09;7398701;19;20017;-56
2023/03/03 06:10:47;;;;;;;1.75;1.13;;;;;;;2.90;100.00;101213.19;7392995;19;20026;-56
2023/03/03 06:13:14;;;;;;;0.98;0.95;;;;;;;2.90;100.00;101211.22;7391711;19;20118;-57
2023/03/03 06:15:40;;;;;;;3.33;2.03;;;;;;;2.87;100.00;101220.28;7393243;19;20018;-57
2023/03/03 06:18:07;;;;;;;4.60;1.27;;;;;;;2.85;100.00;101214.38;7397057;19;20019;-56
2023/03/03 06:20:34;;;;;;;1.67;1.08;;;;;;;2.85;100.00;101222.63;7397189;19;20070;-56
2023/03/03 06:23:01;;;;;;;1.58;1.42;;;;;;;2.83;100.00;101219.47;7393601;19;20006;-56
2023/03/03 06:25:27;;;;;;;1.48;1.38;;;;;;;2.81;100.00;101221.03;7392199;19;20011;-57
2023/03/03 06:27:53;;;;;;;5.78;2.75;;;;;;;2.81;100.00;101221.03;7398421;19;20463;-57
2023/03/03 06:30:20;;;;;;;1.92;1.45;;;;;;;2.81;100.00;101224.59;7397233;19;20027;-56
2023/03/03 06:32:46;;;;;;;2.33;0.50;;;;;;;2.79;100.00;101228.91;7395096;19;20405;-56
2023/03/03 06:35:12;;;;;;;2.75;1.10;;;;;;;2.80;100.00;101227.69;7393791;19;20006;-56
2023/03/03 06:37:39;;;;;;;1.27;0.98;;;;;;;2.76;100.00;101230.47;7394903;19;20017;-56
2023/03/03 06:40:06;;;;;;;13.85;2.75;;;;;;;2.76;100.00;101237.91;7392625;19;20066;-56
2023/03/03 06:42:32;;;;;;;4.63;2.75;;;;;;;2.78;100.00;101239.09;7394820;19;20343;-56
2023/03/03 06:44:58;;;;;;;2.63;2.33;;;;;;;2.77;100.00;101237.50;7394261;19;20082;-56
2023/03/03 06:47:24;;;;;;;5.57;3.50;;;;;;;2.79;100.00;101239.91;7394600;19;20042;-56
2023/03/03 06:49:51;;;;;;;6.63;2.50;;;;;;;2.79;100.00;101246.19;7392532;19;20011;-56
2023/03/03 06:52:21;;;;;;;10.40;1.75;;;;;;;2.83;100.00;101246.19;7394969;19;20031;-56
2023/03/03 06:54:48;;;;;;;5.22;1.45;;;;;;;2.80;100.00;101245.00;7393220;19;20604;-56
2023/03/03 06:57:19;;;;;;;3.28;2.60;;;;;;;2.83;100.00;101243.44;7394326;19;20011;-56
2023/03/03 06:59:50;;;;;;;12.52;2.70;;;;;;;2.82;100.00;101245.41;7396196;19;20015;-56
2023/03/03 07:02:17;;;;;;;;;;;;;;;2.82;100.00;101244.59;7393731;19;20011;-56
2023/03/03 07:04:45;;;;;;;11.38;2.40;;;;;;;2.84;100.00;101245.78;7391284;19;19923;-56
2023/03/03 07:07:23;;;;;;;10.82;2.45;;;;;;;2.84;100.00;101256.78;7395376;19;20010;-56
2023/03/03 07:09:52;;;;;;;2.58;1.83;;;;;;;2.85;100.00;101255.63;7392324;19;20010;-56
2023/03/03 07:12:21;;;;;;;0.98;0.93;;;;;;;2.85;100.00;101252.88;7392861;19;20011;-56
2023/03/03 07:14:54;;;;;;;7.38;1.90;;;;;;;2.88;100.00;101262.31;7392808;19;20463;-56
2023/03/03 07:17:24;;;;;;;5.93;2.55;;;;;;;2.90;100.00;101262.72;7394931;19;20258;-56
2023/03/03 07:19:54;;;;;;;5.43;1.48;;;;;;;2.90;100.00;101265.47;7393664;19;20015;-56
2023/03/03 07:22:24;;;;;;;2.97;2.63;;;;;;;2.89;100.00;101264.69;7396298;19;20478;-56
2023/03/03 07:24:57;;;;;;;2.53;2.05;;;;;;;2.90;100.00;101274.50;7394449;19;20045;-56
2023/03/03 07:27:28;;;;;;;5.55;1.50;;;;;;;2.91;100.00;101270.59;7394268;19;20006;-57
2023/03/03 07:30:20;;;;;;;4.25;2.03;;;;;;;2.91;100.00;101273.34;7395194;19;20025;-56
2023/03/03 07:32:47;;;;;;;4.78;1.98;;;;;;;2.92;100.00;101265.88;7392757;19;20011;-56
2023/03/03 07:35:19;;;;;;;2.15;1.15;;;;;;;2.93;100.00;101267.44;7393237;19;20022;-56
2023/03/03 07:37:45;;;;;;;2.80;2.03;;;;;;;2.95;100.00;101276.88;7394255;19;20042;-56
2023/03/03 07:40:46;;;;;;;5.18;1.83;;;;;;;2.95;100.00;101274.13;7393252;19;20648;-56
2023/03/03 07:43:28;;;;;;;5.45;1.13;;;;;;;2.98;100.00;101269.81;7392250;19;20089;-56
2023/03/03 07:46:09;;;;;;;;;;;;;;;2.99;100.00;101277.66;7392020;19;20007;-56
2023/03/03 07:48:38;;;;;;;6.47;1.67;;;;;;;3.01;100.00;101280.81;7394836;19;19921;-56
2023/03/03 07:51:27;;;;;;;2.72;1.40;;;;;;;3.02;100.00;101281.59;7391457;19;20015;-56
2023/03/03 07:54:11;;;;;;;5.35;1.77;;;;;;;3.05;100.00;101281.59;7390235;19;20014;-56
2023/03/03 07:56:38;;;;;;;2.75;1.15;;;;;;;3.08;100.00;101285.53;7390462;19;20006;-56
2023/03/03 07:59:24;;;;;;;2.40;2.08;;;;;;;3.14;100.00;101283.22;7391303;19;20015;-56
2023/03/03 08:01:57;;;;;;;1.30;1.13;;;;;;;3.17;100.00;101285.16;7388535;19;20010;-56
2023/03/03 08:04:37;;;;;;;2.45;1.60;;;;;;;3.20;100.00;101284.41;7389340;19;20373;-56
2023/03/03 08:07:15;;;;;;;2.30;0.90;;;;;;;3.23;100.00;101286.38;7393096;19;20015;-56
2023/03/03 08:09:49;;;;;;;5.60;2.35;;;;;;;3.26;100.00;101293.84;7391510;19;20010;-56
2023/03/03 08:12:40;;;;;;;5.40;1.85;;;;;;;3.31;100.00;101294.25;7391863;19;20008;-57
2023/03/03 08:15:16;;;;;;;5.30;2.10;;;;;;;3.39;100.00;101295.03;7392297;19;20006;-56
2023/03/03 08:17:44;;;;;;;2.78;0.85;;;;;;;3.44;100.00;101291.91;7394705;19;20023;-56
2023/03/03 08:20:33;;;;;;;0.82;0.82;;;;;;;3.45;100.00;101297.03;7393864;19;20086;-56
2023/03/03 08:22:59;;;;;;;3.72;0.75;;;;;;;3.47;100.00;101302.13;7392766;19;20011;-56
2023/03/03 08:25:26;;;;;;;1.48;1.25;;;;;;;3.49;100.00;101299.75;7397032;19;20006;-56
2023/03/03 08:27:52;;;;;;;1.63;1.52;;;;;;;3.51;100.00;101305.69;7401052;19;20547;-56
2023/03/03 08:30:18;;;;;;;0.82;0.82;;;;;;;3.53;100.00;101306.09;7401467;19;20039;-56
2023/03/03 08:32:44;;;;;;;2.25;1.20;;;;;;;3.57;100.00;101306.88;7396358;19;20017;-56
2023/03/03 08:35:11;;;;;;;4.35;1.20;;;;;;;3.61;100.00;101307.66;7398869;19;20011;-56
2023/03/03 08:37:37;;;;;;;1.63;1.02;;;;;;;3.64;100.00;101312.38;7400725;19;20100;-56
2023/03/03 08:40:03;;;;;;;2.40;1.38;;;;;;;3.68;100.00;101313.19;7397339;19;20351;-56
2023/03/03 08:42:30;;;;;;;2.38;1.08;;;;;;;3.72;100.00;101312.00;7398772;19;20126;-56
2023/03/03 08:44:56;;;;;;;0.80;0.80;;;;;;;3.76;100.00;101314.75;7395695;19;20526;-56
2023/03/03 08:47:22;;;;;;;0.75;0.68;;;;;;;3.84;100.00;101311.59;7399213;19;20492;-56
2023/03/03 08:49:48;;;;;;;1.48;1.00;;;;;;;3.89;100.00;101310.41;7395793;19;20039;-56
2023/03/03 08:52:14;;;;;;;0.80;0.80;;;;;;;3.97;100.00;101314.72;7397961;19;20018;-56
2023/03/03 08:54:41;;;;;;;1.23;0.55;;;;;;;4.07;100.00;101313.16;7394493;19;20029;-61
2023/03/03 08:57:07;;;;;;;2.05;0.85;;;;;;;4.19;100.00;101312.72;7394755;19;20033;-61
2023/03/03 08:59:37;;;;;;;1.23;0.40;;;;;;;4.27;100.00;101312.31;7397724;19;20050;-61
2023/03/03 09:02:05;;;;;;;0.93;0.90;;;;;;;4.36;100.00;101322.94;7395480;19;20494;-61
2023/03/03 09:04:31;;;;;;;0.50;0.50;;;;;;;4.36;100.00;101318.22;7393431;19;20256;-60
2023/03/03 09:06:57;;;;;;;0.20;0.20;;;;;;;4.47;100.00;101321.75;7398415;19;20010;-60
2023/03/03 09:09:24;;;;;;;1.05;0.68;;;;;;;4.51;100.00;101322.50;7397383;19;20038;-60
2023/03/03 09:11:56;;;;;;;0.20;0.20;;;;;;;4.56;100.00;101319.34;7398543;19;20010;-60
2023/03/03 09:14:27;;;;;;;1.13;0.38;;;;;;;4.61;100.00;101321.69;7397611;19;20011;-61
2023/03/03 09:16:55;;;;;;;0.50;0.50;;;;;;;4.68;100.00;101317.34;7398383;19;20044;-61
2023/03/03 09:19:33;;;;;;;1.02;0.47;;;;;;;4.70;100.00;101317.72;7398762;19;20031;-61
2023/03/03 09:22:18;;;;;;;0.65;0.65;;;;;;;4.68;100.00;101325.63;7397605;19;20037;-61
2023/03/03 09:24:47;;;;;;;0.75;0.75;;;;;;;4.68;100.00;101325.63;7396569;19;20018;-61
2023/03/03 09:27:35;;;;;;;1.17;1.08;;;;;;;4.66;100.00;101322.47;7398984;19;20015;-61
2023/03/03 09:30:26;;;;;;;0.73;0.70;;;;;;;4.66;100.00;101328.00;7401043;19;20027;-61
2023/03/03 09:32:55;;;;;;;0.57;0.57;;;;;;;4.65;100.00;101320.91;7395031;19;20018;-61
2023/03/03 09:35:37;;;;;;;0.68;0.68;;;;;;;4.65;100.00;101326.41;7395581;19;20014;-61
2023/03/03 09:38:25;;;;;;;1.02;0.70;;;;;;;4.61;100.00;101321.69;7399891;19;20042;-61
2023/03/03 09:40:54;;;;;;;0.47;0.47;;;;;;;4.63;100.00;101323.28;7397973;19;20021;-61
2023/03/03 09:43:56;;;;;;;0.50;0.50;;;;;;;4.59;100.00;101321.28;7395939;19;20044;-61
2023/03/03 09:46:34;;;;;;;0.80;0.63;;;;;;;4.57;100.00;101331.94;7392595;19;20013;-60
2023/03/03 09:49:35;;;;;;;0.40;0.40;;;;;;;4.53;100.00;101331.16;7396215;19;20040;-61
2023/03/03 09:52:25;;;;;;;0.35;0.35;;;;;;;4.46;100.00;101336.69;7396437;19;20020;-61
2023/03/03 09:55:27;;;;;;;1.65;0.50;;;;;;;4.40;100.00;101338.28;7396499;19;20034;-60
2023/03/03 09:58:02;;;;;;;0.50;0.50;;;;;;;4.33;100.00;101338.31;7398175;19;20033;-60
2023/03/03 10:00:35;;;;;;;1.10;0.93;;;;;;;4.34;100.00;101345.41;7399683;19;20050;-60
2023/03/03 10:03:25;;;;;;;1.40;1.30;;;;;;;4.39;100.00;101342.25;7394695;19;20116;-61
2023/03/03 10:06:03;;;;;;;1.05;1.02;;;;;;;4.51;100.00;101336.31;7398097;19;20014;-60
2023/03/03 10:08:51;;;;;;;0.50;0.50;;;;;;;4.48;100.00;101334.31;7399589;19;20039;-60
2023/03/03 10:11:44;;;;;;;0.20;0.20;;;;;;;4.39;100.00;101335.94;7397471;19;20018;-61
2023/03/03 10:14:42;;;;;;;2.38;0.98;;;;;;;4.29;100.00;101337.53;7395688;19;20103;-60
2023/03/03 10:17:20;;;;;;;0.28;0.28;;;;;;;4.50;100.00;101336.72;7397460;19;20031;-60
2023/03/03 10:19:52;;;;;;;1.08;0.65;;;;;;;4.92;100.00;101341.28;7394997;19;20014;-61
2023/03/03 10:22:34;;;;;;;1.05;0.98;;;;;;;4.89;100.00;101336.56;7394813;19;20352;-61
2023/03/03 10:25:04;;;;;;;;;;;;;;;4.69;100.00;101343.75;7395063;19;20026;-61
2023/03/03 10:28:29;;;;;;;0.90;0.88;;;;;;;6.14;100.00;101338.91;7395833;19;19925;-61
2023/03/03 10:31:10;;;;;;;1.27;0.43;;;;;;;5.59;100.00;101347.22;7390025;19;20010;-61
2023/03/03 10:34:03;;;;;;;1.10;1.00;;;;;;;5.08;100.00;101344.38;7388780;19;20014;-60
2023/03/03 10:37:06;;;;;;;0.65;0.65;;;;;;;6.27;100.00;101351.03;7392514;19;20015;-61
2023/03/03 10:39:43;;;;;;;0.50;0.50;;;;;;;5.04;100.00;101354.66;7389926;19;20006;-61
2023/03/03 10:42:19;;;;;;;0.93;0.93;;;;;;;6.47;100.00;101351.25;7394986;19;20474;-61
2023/03/03 10:45:24;;;;;;;0.70;0.70;;;;;;;4.99;100.00;101364.13;7394121;19;20006;-61
2023/03/03 10:48:16;;;;;;;0.90;0.90;;;;;;;4.70;100.00;101351.59;7395965;19;20414;-61
2023/03/03 10:51:01;;;;;;;0.57;0.57;;;;;;;4.54;100.00;101357.59;7398660;19;20010;-61
2023/03/03 10:53:33;;;;;;;6.53;0.90;;;;;;;4.50;100.00;101348.50;7395799;19;20021;-61
2023/03/03 10:56:33;;;;;;;0.70;0.70;;;;;;;4.54;100.00;101356.78;7394257;19;20347;-61
2023/03/03 10:59:19;;;;;;;0.60;0.60;;;;;;;4.67;100.00;101359.91;7394431;19;20009;-61
2023/03/03 11:02:24;;;;;;;1.42;0.95;;;;;;;4.82;100.00;101359.47;7395136;19;20078;-61
2023/03/03 11:05:05;;;;;;;1.88;0.73;;;;;;;4.92;100.00;101358.63;7390604;19;20010;-61
2023/03/03 11:08:06;;;;;;;0.47;0.47;;;;;;;4.94;100.00;101349.94;7396019;19;20010;-60
2023/03/03 11:10:54;;;;;;;2.72;0.82;;;;;;;4.95;100.00;101348.78;7392530;19;20097;-60
2023/03/03 11:13:43;;;;;;;1.08;0.65;;;;;;;4.94;100.00;101355.47;7394598;19;20473;-61
2023/03/03 11:16:15;;;;;;;0.43;0.43;;;;;;;5.11;100.00;101365.66;7393974;19;20482;-60
2023/03/03 11:19:10;;;;;;;0.57;0.57;;;;;;;5.63;100.00;101353.50;7393679;19;20018;-61
2023/03/03 11:21:42;;;;;;;2.33;2.08;;;;;;;5.68;100.00;101366.91;7394991;19;20006;-61
2023/03/03 11:24:42;;;;;;;0.50;0.50;;;;;;;5.76;100.00;101362.88;7393475;19;20469;-61
2023/03/03 11:27:41;;;;;;;1.67;1.05;;;;;;;5.77;100.00;101370.00;7395188;19;20025;-60
2023/03/03 11:30:27;;;;;;;1.70;0.77;;;;;;;5.77;100.00;101363.69;7396946;19;20010;-61
2023/03/03 11:33:27;;;;;;;0.40;0.40;;;;;;;5.65;100.00;101367.69;7393215;19;20074;-60
2023/03/03 11:36:05;;;;;;;0.45;0.45;;;;;;;5.58;100.00;101373.28;7393034;19;20070;-60
2023/03/03 11:38:48;;;;;;;2.28;1.13;;;;;;;5.64;100.00;101379.97;7398667;19;20398;-60
2023/03/03 11:41:50;;;;;;;0.82;0.43;;;;;;;5.67;100.00;101384.69;7393744;19;20019;-60
2023/03/03 11:44:24;;;;;;;1.58;0.40;;;;;;;5.64;100.00;101382.72;7393706;19;20463;-60
2023/03/03 11:46:55;;;;;;;1.25;0.57;;;;;;;5.58;100.00;101392.63;7394301;19;20010;-60
2023/03/03 11:49:32;;;;;;;0.57;0.57;;;;;;;5.54;100.00;101380.81;7394173;19;20017;-62
2023/03/03 11:52:30;;;;;;;0.52;0.32;;;;;;;5.49;100.00;101385.97;7392314;19;20019;-62